sensor_id;sensor_type;location;lat;lon;timestamp;pressure;altitude;pressure_sealevel;temperature
49785;BMP280;35679;38.732;-121.358;2022-12-18T00:01:25;101396.97;;;13.31
49785;BMP280;35679;38.732;-121.358;2022-12-18T00:04:22;101391.69;;;13.31
49785;BMP280;35679;38.732;-121.358;2022-12-18T00:07:11;101400.31;;;13.33
49785;BMP280;35679;38.732;-121.358;2022-12-18T00:10:01;101387.06;;;13.33
49785;BMP280;35679;38.732;-121.358;2022-12-18T00:12:50;101382.75;;;13.32
49785;BMP280;35679;38.732;-121.358;2022-12-18T00:15:39;101380.91;;;13.33
49785;BMP280;35679;38.732;-121.358;2022-12-18T00:18:29;101377.44;;;13.32
49785;BMP280;35679;38.732;-121.358;2022-12-18T00:21:19;101385.41;;;13.32
49785;BMP280;35679;38.732;-121.358;2022-12-18T00:24:09;101385.41;;;13.32
49785;BMP280;35679;38.732;-121.358;2022-12-18T00:27:00;101381.09;;;13.31
49785;BMP280;35679;38.732;-121.358;2022-12-18T00:29:53;101384.09;;;13.28
49785;BMP280;35679;38.732;-121.358;2022-12-18T00:32:42;101378.28;;;13.25
49785;BMP280;35679;38.732;-121.358;2022-12-18T00:35:32;101387.06;;;13.25
49785;BMP280;35679;38.732;-121.358;2022-12-18T00:38:21;101374.97;;;13.23
49785;BMP280;35679;38.732;-121.358;2022-12-18T00:41:11;101381.28;;;13.22
49785;BMP280;35679;38.732;-121.358;2022-12-18T00:44:02;101380.63;;;13.20
49785;BMP280;35679;38.732;-121.358;2022-12-18T00:46:51;101377.16;;;13.19
49785;BMP280;35679;38.732;-121.358;2022-12-18T00:49:40;101379.13;;;13.17
49785;BMP280;35679;38.732;-121.358;2022-12-18T00:52:30;101372.16;;;13.16
49785;BMP280;35679;38.732;-121.358;2022-12-18T00:55:24;101375.00;;;13.15
49785;BMP280;35679;38.732;-121.358;2022-12-18T00:58:15;101375.00;;;13.15
49785;BMP280;35679;38.732;-121.358;2022-12-18T01:01:05;101370.69;;;13.14
49785;BMP280;35679;38.732;-121.358;2022-12-18T01:03:54;101378.81;;;13.12
49785;BMP280;35679;38.732;-121.358;2022-12-18T01:06:44;101376.97;;;13.13
49785;BMP280;35679;38.732;-121.358;2022-12-18T01:09:33;101373.69;;;13.11
49785;BMP280;35679;38.732;-121.358;2022-12-18T01:12:24;101380.78;;;13.10
49785;BMP280;35679;38.732;-121.358;2022-12-18T01:15:14;101377.50;;;13.09
49785;BMP280;35679;38.732;-121.358;2022-12-18T01:18:04;101374.84;;;13.09
49785;BMP280;35679;38.732;-121.358;2022-12-18T01:20:53;101366.91;;;13.09
49785;BMP280;35679;38.732;-121.358;2022-12-18T01:23:51;101366.03;;;13.08
49785;BMP280;35679;38.732;-121.358;2022-12-18T01:26:43;101368.53;;;13.09
49785;BMP280;35679;38.732;-121.358;2022-12-18T01:29:34;101360.56;;;13.09
49785;BMP280;35679;38.732;-121.358;2022-12-18T01:32:23;101351.13;;;13.07
49785;BMP280;35679;38.732;-121.358;2022-12-18T01:35:13;101361.59;;;13.09
49785;BMP280;35679;38.732;-121.358;2022-12-18T01:38:02;101363.56;;;13.07
49785;BMP280;35679;38.732;-121.358;2022-12-18T01:40:57;101354.94;;;13.05
49785;BMP280;35679;38.732;-121.358;2022-12-18T01:43:53;101356.97;;;13.03
49785;BMP280;35679;38.732;-121.358;2022-12-18T01:46:43;101362.25;;;13.03
49785;BMP280;35679;38.732;-121.358;2022-12-18T01:49:33;101356.28;;;13.01
49785;BMP280;35679;38.732;-121.358;2022-12-18T01:52:25;101358.94;;;13.01
49785;BMP280;35679;38.732;-121.358;2022-12-18T01:55:17;101355.66;;;12.99
49785;BMP280;35679;38.732;-121.358;2022-12-18T01:58:09;101358.28;;;12.99
49785;BMP280;35679;38.732;-121.358;2022-12-18T02:00:58;101357.63;;;12.97
49785;BMP280;35679;38.732;-121.358;2022-12-18T02:03:48;101349.00;;;12.95
49785;BMP280;35679;38.732;-121.358;2022-12-18T02:06:40;101349.19;;;12.93
49785;BMP280;35679;38.732;-121.358;2022-12-18T02:09:40;101354.66;;;12.92
49785;BMP280;35679;38.732;-121.358;2022-12-18T02:12:48;101342.41;;;12.91
49785;BMP280;35679;38.732;-121.358;2022-12-18T02:18:42;101339.91;;;12.89
49785;BMP280;35679;38.732;-121.358;2022-12-18T02:21:51;101346.22;;;12.88
49785;BMP280;35679;38.732;-121.358;2022-12-18T02:25:19;101341.91;;;12.87
49785;BMP280;35679;38.732;-121.358;2022-12-18T02:28:13;101345.53;;;12.86
49785;BMP280;35679;38.732;-121.358;2022-12-18T02:31:07;101341.22;;;12.85
49785;BMP280;35679;38.732;-121.358;2022-12-18T02:34:00;101342.22;;;12.84
49785;BMP280;35679;38.732;-121.358;2022-12-18T02:36:58;101346.66;;;12.84
49785;BMP280;35679;38.732;-121.358;2022-12-18T02:39:49;101347.81;;;12.81
49785;BMP280;35679;38.732;-121.358;2022-12-18T02:42:40;101351.50;;;12.80
49785;BMP280;35679;38.732;-121.358;2022-12-18T02:45:31;101346.34;;;12.79
49785;BMP280;35679;38.732;-121.358;2022-12-18T02:48:25;101343.69;;;12.79
49785;BMP280;35679;38.732;-121.358;2022-12-18T02:51:25;101337.06;;;12.75
49785;BMP280;35679;38.732;-121.358;2022-12-18T02:54:29;101350.31;;;12.75
49785;BMP280;35679;38.732;-121.358;2022-12-18T02:57:34;101344.38;;;12.73
49785;BMP280;35679;38.732;-121.358;2022-12-18T03:06:49;101348.66;;;12.66
49785;BMP280;35679;38.732;-121.358;2022-12-18T03:09:43;101345.34;;;12.64
49785;BMP280;35679;38.732;-121.358;2022-12-18T03:12:40;101348.16;;;12.62
49785;BMP280;35679;38.732;-121.358;2022-12-18T03:15:37;101352.78;;;12.60
49785;BMP280;35679;38.732;-121.358;2022-12-18T03:18:36;101356.28;;;12.61
49785;BMP280;35679;38.732;-121.358;2022-12-18T03:21:35;101355.59;;;12.59
49785;BMP280;35679;38.732;-121.358;2022-12-18T03:24:28;101346.16;;;12.56
49785;BMP280;35679;38.732;-121.358;2022-12-18T03:27:22;101346.34;;;12.55
49785;BMP280;35679;38.732;-121.358;2022-12-18T03:30:16;101348.97;;;12.55
49785;BMP280;35679;38.732;-121.358;2022-12-18T03:33:51;101351.81;;;12.53
49785;BMP280;35679;38.732;-121.358;2022-12-18T03:36:20;101356.25;;;12.53
49785;BMP280;35679;38.732;-121.358;2022-12-18T03:39:11;101342.38;;;12.51
49785;BMP280;35679;38.732;-121.358;2022-12-18T03:45:46;101354.13;;;12.48
49785;BMP280;35679;38.732;-121.358;2022-12-18T03:48:43;101354.13;;;12.48
49785;BMP280;35679;38.732;-121.358;2022-12-18T03:51:44;101351.78;;;12.45
49785;BMP280;35679;38.732;-121.358;2022-12-18T03:54:39;101357.25;;;12.44
49785;BMP280;35679;38.732;-121.358;2022-12-18T03:57:33;101354.75;;;12.43
49785;BMP280;35679;38.732;-121.358;2022-12-18T04:00:27;101355.75;;;12.42
49785;BMP280;35679;38.732;-121.358;2022-12-18T04:03:26;101355.25;;;12.38
49785;BMP280;35679;38.732;-121.358;2022-12-18T04:06:18;101363.34;;;12.37
49785;BMP280;35679;38.732;-121.358;2022-12-18T04:09:08;101361.53;;;12.37
49785;BMP280;35679;38.732;-121.358;2022-12-18T04:12:00;101348.63;;;12.34
49785;BMP280;35679;38.732;-121.358;2022-12-18T04:14:49;101347.81;;;12.34
49785;BMP280;35679;38.732;-121.358;2022-12-18T04:17:48;101356.75;;;12.33
49785;BMP280;35679;38.732;-121.358;2022-12-18T04:20:42;101353.59;;;12.29
49785;BMP280;35679;38.732;-121.358;2022-12-18T04:23:31;101356.22;;;12.29
49785;BMP280;35679;38.732;-121.358;2022-12-18T04:26:21;101355.41;;;12.29
49785;BMP280;35679;38.732;-121.358;2022-12-18T04:29:33;101353.25;;;12.24
49785;BMP280;35679;38.732;-121.358;2022-12-18T04:32:28;101360.19;;;12.25
49785;BMP280;35679;38.732;-121.358;2022-12-18T04:35:23;101355.03;;;12.24
49785;BMP280;35679;38.732;-121.358;2022-12-18T04:38:13;101355.22;;;12.22
49785;BMP280;35679;38.732;-121.358;2022-12-18T04:41:03;101349.41;;;12.19
49785;BMP280;35679;38.732;-121.358;2022-12-18T04:43:53;101357.34;;;12.19
49785;BMP280;35679;38.732;-121.358;2022-12-18T04:46:42;101358.50;;;12.16
49785;BMP280;35679;38.732;-121.358;2022-12-18T04:49:35;101358.50;;;12.16
49785;BMP280;35679;38.732;-121.358;2022-12-18T04:52:35;101362.00;;;12.17
49785;BMP280;35679;38.732;-121.358;2022-12-18T04:55:25;101364.13;;;12.13
49785;BMP280;35679;38.732;-121.358;2022-12-18T04:58:15;101365.09;;;12.12
49785;BMP280;35679;38.732;-121.358;2022-12-18T05:01:04;101353.53;;;12.13
49785;BMP280;35679;38.732;-121.358;2022-12-18T05:03:54;101360.81;;;12.11
49785;BMP280;35679;38.732;-121.358;2022-12-18T05:06:43;101359.97;;;12.11
49785;BMP280;35679;38.732;-121.358;2022-12-18T05:09:32;101364.59;;;12.09
49785;BMP280;35679;38.732;-121.358;2022-12-18T05:12:21;101361.94;;;12.09
49785;BMP280;35679;38.732;-121.358;2022-12-18T05:15:11;101362.13;;;12.07
49785;BMP280;35679;38.732;-121.358;2022-12-18T05:18:00;101365.75;;;12.06
49785;BMP280;35679;38.732;-121.358;2022-12-18T05:20:51;101358.81;;;12.05
49785;BMP280;35679;38.732;-121.358;2022-12-18T05:23:40;101357.16;;;12.04
49785;BMP280;35679;38.732;-121.358;2022-12-18T05:26:30;101348.56;;;12.02
49785;BMP280;35679;38.732;-121.358;2022-12-18T05:29:19;101349.41;;;12.03
49785;BMP280;35679;38.732;-121.358;2022-12-18T05:32:08;101343.59;;;11.99
49785;BMP280;35679;38.732;-121.358;2022-12-18T05:34:58;101342.75;;;11.99
49785;BMP280;35679;38.732;-121.358;2022-12-18T05:37:47;101338.31;;;11.99
49785;BMP280;35679;38.732;-121.358;2022-12-18T05:40:36;101338.78;;;11.95
49785;BMP280;35679;38.732;-121.358;2022-12-18T05:43:27;101339.75;;;11.94
49785;BMP280;35679;38.732;-121.358;2022-12-18T05:46:17;101342.56;;;11.92
49785;BMP280;35679;38.732;-121.358;2022-12-18T05:49:07;101346.03;;;11.93
49785;BMP280;35679;38.732;-121.358;2022-12-18T05:51:56;101346.19;;;11.91
49785;BMP280;35679;38.732;-121.358;2022-12-18T05:54:45;101342.91;;;11.89
49785;BMP280;35679;38.732;-121.358;2022-12-18T05:57:34;101342.91;;;11.89
49785;BMP280;35679;38.732;-121.358;2022-12-18T06:00:23;101350.16;;;11.87
49785;BMP280;35679;38.732;-121.358;2022-12-18T06:03:16;101346.53;;;11.88
49785;BMP280;35679;38.732;-121.358;2022-12-18T06:06:16;101352.00;;;11.87
49785;BMP280;35679;38.732;-121.358;2022-12-18T06:09:06;101359.06;;;11.86
49785;BMP280;35679;38.732;-121.358;2022-12-18T06:11:58;101358.09;;;11.87
49785;BMP280;35679;38.732;-121.358;2022-12-18T06:14:47;101356.44;;;11.86
49785;BMP280;35679;38.732;-121.358;2022-12-18T06:17:37;101348.84;;;11.83
49785;BMP280;35679;38.732;-121.358;2022-12-18T06:20:38;101352.00;;;11.87
49785;BMP280;35679;38.732;-121.358;2022-12-18T06:23:29;101354.13;;;11.83
49785;BMP280;35679;38.732;-121.358;2022-12-18T06:26:19;101359.72;;;11.80
49785;BMP280;35679;38.732;-121.358;2022-12-18T06:29:14;101349.00;;;11.82
49785;BMP280;35679;38.732;-121.358;2022-12-18T06:32:04;101351.63;;;11.82
49785;BMP280;35679;38.732;-121.358;2022-12-18T06:34:53;101349.97;;;11.81
49785;BMP280;35679;38.732;-121.358;2022-12-18T06:37:43;101348.31;;;11.80
49785;BMP280;35679;38.732;-121.358;2022-12-18T06:40:33;101351.13;;;11.78
49785;BMP280;35679;38.732;-121.358;2022-12-18T06:43:22;101344.19;;;11.77
49785;BMP280;35679;38.732;-121.358;2022-12-18T06:46:11;101343.31;;;11.77
49785;BMP280;35679;38.732;-121.358;2022-12-18T06:49:01;101350.28;;;11.78
49785;BMP280;35679;38.732;-121.358;2022-12-18T06:51:50;101352.28;;;11.76
49785;BMP280;35679;38.732;-121.358;2022-12-18T06:54:40;101347.28;;;11.73
49785;BMP280;35679;38.732;-121.358;2022-12-18T06:57:31;101350.91;;;11.72
49785;BMP280;35679;38.732;-121.358;2022-12-18T07:00:20;101350.78;;;11.74
49785;BMP280;35679;38.732;-121.358;2022-12-18T07:03:09;101346.47;;;11.73
49785;BMP280;35679;38.732;-121.358;2022-12-18T07:05:59;101356.38;;;11.71
49785;BMP280;35679;38.732;-121.358;2022-12-18T07:08:49;101362.34;;;11.73
49785;BMP280;35679;38.732;-121.358;2022-12-18T07:11:38;101359.00;;;11.71
49785;BMP280;35679;38.732;-121.358;2022-12-18T07:14:27;101367.28;;;11.68
49785;BMP280;35679;38.732;-121.358;2022-12-18T07:17:17;101371.88;;;11.66
49785;BMP280;35679;38.732;-121.358;2022-12-18T07:20:06;101360.47;;;11.65
49785;BMP280;35679;38.732;-121.358;2022-12-18T07:22:56;101370.22;;;11.65
49785;BMP280;35679;38.732;-121.358;2022-12-18T07:25:45;101368.41;;;11.65
49785;BMP280;35679;38.732;-121.358;2022-12-18T07:28:35;101370.06;;;11.66
49785;BMP280;35679;38.732;-121.358;2022-12-18T07:31:25;101374.69;;;11.64
49785;BMP280;35679;38.732;-121.358;2022-12-18T07:34:14;101380.13;;;11.63
49785;BMP280;35679;38.732;-121.358;2022-12-18T07:37:04;101376.00;;;11.60
49785;BMP280;35679;38.732;-121.358;2022-12-18T07:39:53;101371.53;;;11.61
49785;BMP280;35679;38.732;-121.358;2022-12-18T07:42:42;101374.16;;;11.61
49785;BMP280;35679;38.732;-121.358;2022-12-18T07:45:31;101370.03;;;11.58
49785;BMP280;35679;38.732;-121.358;2022-12-18T07:48:21;101375.47;;;11.57
49785;BMP280;35679;38.732;-121.358;2022-12-18T07:51:10;101372.81;;;11.57
49785;BMP280;35679;38.732;-121.358;2022-12-18T07:53:59;101372.81;;;11.57
49785;BMP280;35679;38.732;-121.358;2022-12-18T07:56:49;101371.00;;;11.57
49785;BMP280;35679;38.732;-121.358;2022-12-18T07:59:38;101374.78;;;11.55
49785;BMP280;35679;38.732;-121.358;2022-12-18T08:02:30;101377.44;;;11.55
49785;BMP280;35679;38.732;-121.358;2022-12-18T08:05:21;101369.50;;;11.55
49785;BMP280;35679;38.732;-121.358;2022-12-18T08:08:12;101365.34;;;11.52
49785;BMP280;35679;38.732;-121.358;2022-12-18T08:11:02;101366.47;;;11.50
49785;BMP280;35679;38.732;-121.358;2022-12-18T08:13:51;101371.75;;;11.50
49785;BMP280;35679;38.732;-121.358;2022-12-18T08:16:41;101365.66;;;11.49
49785;BMP280;35679;38.732;-121.358;2022-12-18T08:19:30;101366.63;;;11.48
49785;BMP280;35679;38.732;-121.358;2022-12-18T08:22:19;101358.53;;;11.50
49785;BMP280;35679;38.732;-121.358;2022-12-18T08:25:09;101357.03;;;11.47
49785;BMP280;35679;38.732;-121.358;2022-12-18T08:27:58;101357.91;;;11.48
49785;BMP280;35679;38.732;-121.358;2022-12-18T08:30:52;101353.22;;;11.42
49785;BMP280;35679;38.732;-121.358;2022-12-18T08:33:41;101351.09;;;11.45
49785;BMP280;35679;38.732;-121.358;2022-12-18T08:36:31;101349.44;;;11.44
49785;BMP280;35679;38.732;-121.358;2022-12-18T08:39:20;101345.31;;;11.42
49785;BMP280;35679;38.732;-121.358;2022-12-18T08:42:09;101343.66;;;11.41
49785;BMP280;35679;38.732;-121.358;2022-12-18T08:45:19;101346.28;;;11.41
49785;BMP280;35679;38.732;-121.358;2022-12-18T08:48:10;101338.69;;;11.38
49785;BMP280;35679;38.732;-121.358;2022-12-18T08:51:06;101344.63;;;11.40
49785;BMP280;35679;38.732;-121.358;2022-12-18T08:53:55;101341.31;;;11.38
49785;BMP280;35679;38.732;-121.358;2022-12-18T08:56:44;101327.44;;;11.36
49785;BMP280;35679;38.732;-121.358;2022-12-18T08:59:33;101329.38;;;11.34
49785;BMP280;35679;38.732;-121.358;2022-12-18T09:02:22;101342.59;;;11.34
49785;BMP280;35679;38.732;-121.358;2022-12-18T09:05:12;101335.69;;;11.33
49785;BMP280;35679;38.732;-121.358;2022-12-18T09:08:01;101335.69;;;11.33
49785;BMP280;35679;38.732;-121.358;2022-12-18T09:10:51;101333.34;;;11.30
49785;BMP280;35679;38.732;-121.358;2022-12-18T09:13:40;101332.38;;;11.31
49785;BMP280;35679;38.732;-121.358;2022-12-18T09:16:31;101337.66;;;11.31
49785;BMP280;35679;38.732;-121.358;2022-12-18T09:19:20;101332.38;;;11.31
49785;BMP280;35679;38.732;-121.358;2022-12-18T09:22:09;101343.38;;;11.26
49785;BMP280;35679;38.732;-121.358;2022-12-18T09:24:59;101337.28;;;11.26
49785;BMP280;35679;38.732;-121.358;2022-12-18T09:27:48;101332.00;;;11.26
49785;BMP280;35679;38.732;-121.358;2022-12-18T09:30:39;101330.00;;;11.28
49785;BMP280;35679;38.732;-121.358;2022-12-18T09:33:28;101332.66;;;11.28
49785;BMP280;35679;38.732;-121.358;2022-12-18T09:36:18;101328.06;;;11.30
49785;BMP280;35679;38.732;-121.358;2022-12-18T09:39:08;101342.56;;;11.26
49785;BMP280;35679;38.732;-121.358;2022-12-18T09:41:58;101339.06;;;11.25
49785;BMP280;35679;38.732;-121.358;2022-12-18T09:44:50;101348.00;;;11.24
49785;BMP280;35679;38.732;-121.358;2022-12-18T09:47:43;101354.63;;;11.28
49785;BMP280;35679;38.732;-121.358;2022-12-18T09:50:37;101359.41;;;11.25
49785;BMP280;35679;38.732;-121.358;2022-12-18T09:53:31;101365.66;;;11.24
49785;BMP280;35679;38.732;-121.358;2022-12-18T09:56:25;101367.16;;;11.26
49785;BMP280;35679;38.732;-121.358;2022-12-18T09:59:34;101367.84;;;11.28
49785;BMP280;35679;38.732;-121.358;2022-12-18T10:02:25;101371.63;;;11.26
49785;BMP280;35679;38.732;-121.358;2022-12-18T10:05:37;101373.28;;;11.27
49785;BMP280;35679;38.732;-121.358;2022-12-18T10:21:15;101387.13;;;11.21
49785;BMP280;35679;38.732;-121.358;2022-12-18T10:27:17;101388.91;;;11.20
49785;BMP280;35679;38.732;-121.358;2022-12-18T10:30:16;101383.41;;;11.14
49785;BMP280;35679;38.732;-121.358;2022-12-18T10:33:05;101382.59;;;11.13
49785;BMP280;35679;38.732;-121.358;2022-12-18T10:35:55;101378.31;;;11.12
49785;BMP280;35679;38.732;-121.358;2022-12-18T10:38:46;101387.03;;;11.13
49785;BMP280;35679;38.732;-121.358;2022-12-18T10:41:35;101380.78;;;11.14
49785;BMP280;35679;38.732;-121.358;2022-12-18T10:44:24;101386.06;;;11.14
49785;BMP280;35679;38.732;-121.358;2022-12-18T10:47:18;101381.09;;;11.11
49785;BMP280;35679;38.732;-121.358;2022-12-18T10:50:34;101386.38;;;11.11
49785;BMP280;35679;38.732;-121.358;2022-12-18T10:53:56;101385.53;;;11.10
49785;BMP280;35679;38.732;-121.358;2022-12-18T10:56:45;101385.00;;;11.07
49785;BMP280;35679;38.732;-121.358;2022-12-18T10:59:50;101376.97;;;11.09
49785;BMP280;35679;38.732;-121.358;2022-12-18T11:02:39;101385.84;;;11.08
49785;BMP280;35679;38.732;-121.358;2022-12-18T11:05:31;101391.31;;;11.06
49785;BMP280;35679;38.732;-121.358;2022-12-18T11:08:21;101397.41;;;11.07
49785;BMP280;35679;38.732;-121.358;2022-12-18T11:11:22;101402.53;;;11.08
49785;BMP280;35679;38.732;-121.358;2022-12-18T11:14:20;101412.25;;;11.08
49785;BMP280;35679;38.732;-121.358;2022-12-18T11:17:40;101402.84;;;11.05
49785;BMP280;35679;38.732;-121.358;2022-12-18T11:20:34;101398.38;;;11.06
49785;BMP280;35679;38.732;-121.358;2022-12-18T11:23:26;101398.69;;;11.03
49785;BMP280;35679;38.732;-121.358;2022-12-18T11:26:16;101395.91;;;11.04
49785;BMP280;35679;38.732;-121.358;2022-12-18T11:29:12;101390.78;;;11.03
49785;BMP280;35679;38.732;-121.358;2022-12-18T11:35:14;101388.41;;;11.00
49785;BMP280;35679;38.732;-121.358;2022-12-18T11:38:32;101390.56;;;10.96
49785;BMP280;35679;38.732;-121.358;2022-12-18T11:41:27;101385.28;;;10.96
49785;BMP280;35679;38.732;-121.358;2022-12-18T11:44:58;101391.22;;;10.98
49785;BMP280;35679;38.732;-121.358;2022-12-18T11:47:55;101385.28;;;10.96
49785;BMP280;35679;38.732;-121.358;2022-12-18T11:53:34;101379.31;;;10.94
49785;BMP280;35679;38.732;-121.358;2022-12-18T11:56:30;101371.75;;;10.99
49785;BMP280;35679;38.732;-121.358;2022-12-18T12:13:44;101385.91;;;10.90
49785;BMP280;35679;38.732;-121.358;2022-12-18T12:17:03;101379.94;;;10.88
49785;BMP280;35679;38.732;-121.358;2022-12-18T12:26:20;101388.38;;;10.92
49785;BMP280;35679;38.732;-121.358;2022-12-18T12:33:02;101404.13;;;10.84
49785;BMP280;35679;38.732;-121.358;2022-12-18T12:36:06;101391.47;;;10.87
49785;BMP280;35679;38.732;-121.358;2022-12-18T12:39:01;101399.38;;;10.87
49785;BMP280;35679;38.732;-121.358;2022-12-18T12:41:52;101390.28;;;10.82
49785;BMP280;35679;38.732;-121.358;2022-12-18T12:45:04;101401.38;;;10.85
49785;BMP280;35679;38.732;-121.358;2022-12-18T12:47:56;101397.22;;;10.83
49785;BMP280;35679;38.732;-121.358;2022-12-18T12:50:47;101395.38;;;10.83
49785;BMP280;35679;38.732;-121.358;2022-12-18T12:53:38;101393.72;;;10.82
49785;BMP280;35679;38.732;-121.358;2022-12-18T12:56:54;101402.78;;;10.80
49785;BMP280;35679;38.732;-121.358;2022-12-18T13:00:09;101409.28;;;10.85
49785;BMP280;35679;38.732;-121.358;2022-12-18T13:03:08;101412.69;;;10.78
49785;BMP280;35679;38.732;-121.358;2022-12-18T13:06:12;101412.38;;;10.81
49785;BMP280;35679;38.732;-121.358;2022-12-18T13:09:05;101410.78;;;10.88
49785;BMP280;35679;38.732;-121.358;2022-12-18T13:12:02;101406.13;;;10.82
49785;BMP280;35679;38.732;-121.358;2022-12-18T13:15:22;101405.25;;;10.81
49785;BMP280;35679;38.732;-121.358;2022-12-18T13:18:23;101412.00;;;10.76
49785;BMP280;35679;38.732;-121.358;2022-12-18T13:21:30;101415.16;;;10.79
49785;BMP280;35679;38.732;-121.358;2022-12-18T13:24:26;101412.53;;;10.79
49785;BMP280;35679;38.732;-121.358;2022-12-18T13:36:23;101419.69;;;10.69
49785;BMP280;35679;38.732;-121.358;2022-12-18T13:45:44;101417.88;;;10.70
49785;BMP280;35679;38.732;-121.358;2022-12-18T13:48:38;101416.22;;;10.69
49785;BMP280;35679;38.732;-121.358;2022-12-18T13:51:32;101414.56;;;10.68
49785;BMP280;35679;38.732;-121.358;2022-12-18T13:54:36;101411.78;;;10.69
49785;BMP280;35679;38.732;-121.358;2022-12-18T13:57:36;101422.34;;;10.69
49785;BMP280;35679;38.732;-121.358;2022-12-18T14:00:30;101417.72;;;10.71
49785;BMP280;35679;38.732;-121.358;2022-12-18T14:03:25;101426.63;;;10.70
49785;BMP280;35679;38.732;-121.358;2022-12-18T14:06:16;101420.97;;;10.65
49785;BMP280;35679;38.732;-121.358;2022-12-18T14:09:08;101417.34;;;10.66
49785;BMP280;35679;38.732;-121.358;2022-12-18T14:12:21;101421.81;;;10.66
49785;BMP280;35679;38.732;-121.358;2022-12-18T14:15:43;101420.66;;;10.68
49785;BMP280;35679;38.732;-121.358;2022-12-18T14:21:29;101417.66;;;10.63
49785;BMP280;35679;38.732;-121.358;2022-12-18T14:24:21;101413.06;;;10.65
49785;BMP280;35679;38.732;-121.358;2022-12-18T14:27:22;101407.53;;;10.59
49785;BMP280;35679;38.732;-121.358;2022-12-18T14:33:16;101411.41;;;10.64
49785;BMP280;35679;38.732;-121.358;2022-12-18T14:36:16;101415.16;;;10.62
49785;BMP280;35679;38.732;-121.358;2022-12-18T14:39:17;101420.97;;;10.65
49785;BMP280;35679;38.732;-121.358;2022-12-18T14:42:11;101418.47;;;10.64
49785;BMP280;35679;38.732;-121.358;2022-12-18T14:45:35;101421.41;;;10.61
49785;BMP280;35679;38.732;-121.358;2022-12-18T14:48:41;101429.50;;;10.59
49785;BMP280;35679;38.732;-121.358;2022-12-18T14:51:52;101422.56;;;10.58
49785;BMP280;35679;38.732;-121.358;2022-12-18T14:54:46;101426.31;;;10.56
49785;BMP280;35679;38.732;-121.358;2022-12-18T14:57:36;101416.03;;;10.53
49785;BMP280;35679;38.732;-121.358;2022-12-18T15:00:27;101424.50;;;10.56
49785;BMP280;35679;38.732;-121.358;2022-12-18T15:03:21;101428.59;;;10.51
49785;BMP280;35679;38.732;-121.358;2022-12-18T15:06:36;101430.75;;;10.55
49785;BMP280;35679;38.732;-121.358;2022-12-18T15:09:27;101437.84;;;10.55
49785;BMP280;35679;38.732;-121.358;2022-12-18T15:15:46;101444.63;;;10.57
49785;BMP280;35679;38.732;-121.358;2022-12-18T15:18:41;101440.19;;;10.58
49785;BMP280;35679;38.732;-121.358;2022-12-18T15:21:31;101438.97;;;10.52
49785;BMP280;35679;38.732;-121.358;2022-12-18T15:24:26;101439.66;;;10.54
49785;BMP280;35679;38.732;-121.358;2022-12-18T15:27:26;101444.09;;;10.54
49785;BMP280;35679;38.732;-121.358;2022-12-18T15:30:19;101447.88;;;10.51
49785;BMP280;35679;38.732;-121.358;2022-12-18T15:33:27;101446.59;;;10.55
49785;BMP280;35679;38.732;-121.358;2022-12-18T15:36:21;101451.34;;;10.52
49785;BMP280;35679;38.732;-121.358;2022-12-18T15:39:13;101449.00;;;10.49
49785;BMP280;35679;38.732;-121.358;2022-12-18T15:42:03;101462.03;;;10.50
49785;BMP280;35679;38.732;-121.358;2022-12-18T15:45:12;101461.06;;;10.51
49785;BMP280;35679;38.732;-121.358;2022-12-18T15:48:01;101464.16;;;10.47
49785;BMP280;35679;38.732;-121.358;2022-12-18T15:50:53;101463.16;;;10.48
49785;BMP280;35679;38.732;-121.358;2022-12-18T15:53:46;101463.69;;;10.51
49785;BMP280;35679;38.732;-121.358;2022-12-18T15:56:36;101457.75;;;10.49
49785;BMP280;35679;38.732;-121.358;2022-12-18T15:59:44;101461.53;;;10.47
49785;BMP280;35679;38.732;-121.358;2022-12-18T16:02:33;101461.53;;;10.47
49785;BMP280;35679;38.732;-121.358;2022-12-18T16:05:26;101470.56;;;10.45
49785;BMP280;35679;38.732;-121.358;2022-12-18T16:08:15;101462.66;;;10.45
49785;BMP280;35679;38.732;-121.358;2022-12-18T16:11:05;101459.00;;;10.45
49785;BMP280;35679;38.732;-121.358;2022-12-18T16:13:55;101468.44;;;10.48
49785;BMP280;35679;38.732;-121.358;2022-12-18T16:16:46;101473.88;;;10.46
49785;BMP280;35679;38.732;-121.358;2022-12-18T16:19:35;101483.75;;;10.45
49785;BMP280;35679;38.732;-121.358;2022-12-18T16:22:28;101496.63;;;10.47
49785;BMP280;35679;38.732;-121.358;2022-12-18T16:25:22;101498.31;;;10.48
49785;BMP280;35679;38.732;-121.358;2022-12-18T16:28:13;101503.75;;;10.47
49785;BMP280;35679;38.732;-121.358;2022-12-18T16:31:02;101503.75;;;10.47
49785;BMP280;35679;38.732;-121.358;2022-12-18T16:34:31;101501.38;;;10.44
49785;BMP280;35679;38.732;-121.358;2022-12-18T16:37:22;101511.66;;;10.47
49785;BMP280;35679;38.732;-121.358;2022-12-18T16:40:14;101509.13;;;10.45
49785;BMP280;35679;38.732;-121.358;2022-12-18T16:43:04;101529.13;;;10.48
49785;BMP280;35679;38.732;-121.358;2022-12-18T16:45:54;101534.78;;;10.53
49785;BMP280;35679;38.732;-121.358;2022-12-18T16:48:45;101528.38;;;10.55
49785;BMP280;35679;38.732;-121.358;2022-12-18T16:51:35;101529.88;;;10.58
49785;BMP280;35679;38.732;-121.358;2022-12-18T16:54:24;101536.03;;;10.58
49785;BMP280;35679;38.732;-121.358;2022-12-18T16:57:15;101533.75;;;10.63
49785;BMP280;35679;38.732;-121.358;2022-12-18T17:00:06;101537.09;;;10.65
49785;BMP280;35679;38.732;-121.358;2022-12-18T17:02:55;101542.06;;;10.68
49785;BMP280;35679;38.732;-121.358;2022-12-18T17:05:45;101539.44;;;10.68
49785;BMP280;35679;38.732;-121.358;2022-12-18T17:08:40;101544.00;;;10.66
49785;BMP280;35679;38.732;-121.358;2022-12-18T17:11:31;101545.41;;;10.70